sensor_id;sensor_type;location;lat;lon;timestamp;temperature;humidity
27795;DHT22;15176;50.844;4.412;2023-01-10T00:00:11;7.50;99.90
27795;DHT22;15176;50.844;4.412;2023-01-10T00:02:38;7.50;99.90
27795;DHT22;15176;50.844;4.412;2023-01-10T00:05:04;7.40;99.90
27795;DHT22;15176;50.844;4.412;2023-01-10T00:07:30;7.20;99.90
27795;DHT22;15176;50.844;4.412;2023-01-10T00:09:55;7.30;99.90
27795;DHT22;15176;50.844;4.412;2023-01-10T00:12:21;7.20;99.90
27795;DHT22;15176;50.844;4.412;2023-01-10T00:15:06;7.10;99.90
27795;DHT22;15176;50.844;4.412;2023-01-10T00:17:32;7.10;99.90
27795;DHT22;15176;50.844;4.412;2023-01-10T00:19:57;7.10;99.90
27795;DHT22;15176;50.844;4.412;2023-01-10T00:22:23;7.10;99.90
27795;DHT22;15176;50.844;4.412;2023-01-10T00:24:50;7.10;99.90
27795;DHT22;15176;50.844;4.412;2023-01-10T00:27:16;7.00;99.90
27795;DHT22;15176;50.844;4.412;2023-01-10T00:29:47;7.00;99.90
27795;DHT22;15176;50.844;4.412;2023-01-10T00:32:15;7.00;99.90
27795;DHT22;15176;50.844;4.412;2023-01-10T00:34:41;7.00;99.90
27795;DHT22;15176;50.844;4.412;2023-01-10T00:37:07;7.00;99.90
27795;DHT22;15176;50.844;4.412;2023-01-10T00:39:33;7.00;99.90
27795;DHT22;15176;50.844;4.412;2023-01-10T00:41:59;7.20;99.90
27795;DHT22;15176;50.844;4.412;2023-01-10T00:44:43;7.30;99.90
27795;DHT22;15176;50.844;4.412;2023-01-10T00:47:11;7.30;99.90
27795;DHT22;15176;50.844;4.412;2023-01-10T00:49:38;7.20;99.90
27795;DHT22;15176;50.844;4.412;2023-01-10T00:52:04;7.20;99.90
27795;DHT22;15176;50.844;4.412;2023-01-10T00:54:30;7.20;99.90
27795;DHT22;15176;50.844;4.412;2023-01-10T00:56:55;7.40;99.90
27795;DHT22;15176;50.844;4.412;2023-01-10T00:59:23;7.50;99.90
27795;DHT22;15176;50.844;4.412;2023-01-10T01:01:49;7.30;99.90
27795;DHT22;15176;50.844;4.412;2023-01-10T01:04:15;7.30;99.90
27795;DHT22;15176;50.844;4.412;2023-01-10T01:06:43;7.40;99.90
27795;DHT22;15176;50.844;4.412;2023-01-10T01:09:09;7.30;99.90
27795;DHT22;15176;50.844;4.412;2023-01-10T01:11:34;7.40;99.90
27795;DHT22;15176;50.844;4.412;2023-01-10T01:14:00;7.20;99.90
27795;DHT22;15176;50.844;4.412;2023-01-10T01:16:26;7.30;99.90
27795;DHT22;15176;50.844;4.412;2023-01-10T01:18:51;7.40;99.90
27795;DHT22;15176;50.844;4.412;2023-01-10T01:21:18;7.40;99.90
27795;DHT22;15176;50.844;4.412;2023-01-10T01:23:45;7.50;99.90
27795;DHT22;15176;50.844;4.412;2023-01-10T01:26:11;7.80;99.90
27795;DHT22;15176;50.844;4.412;2023-01-10T01:28:38;7.70;99.90
27795;DHT22;15176;50.844;4.412;2023-01-10T01:31:08;7.60;99.90
27795;DHT22;15176;50.844;4.412;2023-01-10T01:33:34;7.70;99.90
27795;DHT22;15176;50.844;4.412;2023-01-10T01:36:00;7.70;99.90
27795;DHT22;15176;50.844;4.412;2023-01-10T01:38:26;7.70;99.90
27795;DHT22;15176;50.844;4.412;2023-01-10T01:40:51;7.70;99.90
27795;DHT22;15176;50.844;4.412;2023-01-10T01:43:26;7.70;99.90
27795;DHT22;15176;50.844;4.412;2023-01-10T01:45:52;7.80;99.90
27795;DHT22;15176;50.844;4.412;2023-01-10T01:48:38;7.90;99.90
27795;DHT22;15176;50.844;4.412;2023-01-10T01:51:11;7.90;99.90
27795;DHT22;15176;50.844;4.412;2023-01-10T01:53:45;7.70;99.90
27795;DHT22;15176;50.844;4.412;2023-01-10T01:56:18;7.70;99.90
27795;DHT22;15176;50.844;4.412;2023-01-10T02:01:37;7.90;99.90
27795;DHT22;15176;50.844;4.412;2023-01-10T02:04:28;8.00;99.90
27795;DHT22;15176;50.844;4.412;2023-01-10T02:06:56;7.90;99.90
27795;DHT22;15176;50.844;4.412;2023-01-10T02:12:18;7.90;99.90
27795;DHT22;15176;50.844;4.412;2023-01-10T02:14:44;7.80;99.90
27795;DHT22;15176;50.844;4.412;2023-01-10T02:17:12;8.00;99.90
27795;DHT22;15176;50.844;4.412;2023-01-10T02:37:03;7.40;99.90
27795;DHT22;15176;50.844;4.412;2023-01-10T02:39:44;7.00;99.90
27795;DHT22;15176;50.844;4.412;2023-01-10T02:42:17;7.20;99.90
27795;DHT22;15176;50.844;4.412;2023-01-10T02:47:19;7.10;99.90
27795;DHT22;15176;50.844;4.412;2023-01-10T02:49:48;7.00;99.90
27795;DHT22;15176;50.844;4.412;2023-01-10T02:52:21;7.10;99.90
27795;DHT22;15176;50.844;4.412;2023-01-10T02:54:49;7.10;99.90
27795;DHT22;15176;50.844;4.412;2023-01-10T03:01:05;7.40;99.90
27795;DHT22;15176;50.844;4.412;2023-01-10T03:03:40;7.40;99.90
27795;DHT22;15176;50.844;4.412;2023-01-10T03:09:04;7.30;99.90
27795;DHT22;15176;50.844;4.412;2023-01-10T03:11:35;7.20;99.90
27795;DHT22;15176;50.844;4.412;2023-01-10T03:14:10;7.10;99.90
27795;DHT22;15176;50.844;4.412;2023-01-10T03:16:40;7.00;99.90
27795;DHT22;15176;50.844;4.412;2023-01-10T03:19:18;7.00;99.90
27795;DHT22;15176;50.844;4.412;2023-01-10T03:21:46;6.90;99.90
27795;DHT22;15176;50.844;4.412;2023-01-10T03:24:22;6.90;99.90
27795;DHT22;15176;50.844;4.412;2023-01-10T03:27:00;7.10;99.90
27795;DHT22;15176;50.844;4.412;2023-01-10T03:29:35;7.00;99.90
27795;DHT22;15176;50.844;4.412;2023-01-10T03:32:05;7.10;99.90
27795;DHT22;15176;50.844;4.412;2023-01-10T03:34:33;7.00;99.90
27795;DHT22;15176;50.844;4.412;2023-01-10T03:39:53;6.90;99.90
27795;DHT22;15176;50.844;4.412;2023-01-10T03:42:37;7.20;99.90
27795;DHT22;15176;50.844;4.412;2023-01-10T03:45:32;7.30;99.90
27795;DHT22;15176;50.844;4.412;2023-01-10T03:48:02;7.40;99.90
27795;DHT22;15176;50.844;4.412;2023-01-10T03:50:29;7.30;99.90
27795;DHT22;15176;50.844;4.412;2023-01-10T03:52:56;7.20;99.90
27795;DHT22;15176;50.844;4.412;2023-01-10T03:55:26;7.40;99.90
27795;DHT22;15176;50.844;4.412;2023-01-10T03:57:52;7.40;99.90
27795;DHT22;15176;50.844;4.412;2023-01-10T04:00:18;7.10;99.90
27795;DHT22;15176;50.844;4.412;2023-01-10T04:02:44;7.10;99.90
27795;DHT22;15176;50.844;4.412;2023-01-10T04:05:10;7.00;99.90
27795;DHT22;15176;50.844;4.412;2023-01-10T04:07:36;6.70;99.90
27795;DHT22;15176;50.844;4.412;2023-01-10T04:10:05;7.00;99.90
27795;DHT22;15176;50.844;4.412;2023-01-10T04:12:33;7.20;99.90
27795;DHT22;15176;50.844;4.412;2023-01-10T04:14:58;6.90;99.90
27795;DHT22;15176;50.844;4.412;2023-01-10T04:17:27;6.90;99.90
27795;DHT22;15176;50.844;4.412;2023-01-10T04:19:52;6.70;99.90
27795;DHT22;15176;50.844;4.412;2023-01-10T04:22:18;6.80;99.90
27795;DHT22;15176;50.844;4.412;2023-01-10T04:24:44;7.00;99.90
27795;DHT22;15176;50.844;4.412;2023-01-10T04:27:11;7.10;99.90
27795;DHT22;15176;50.844;4.412;2023-01-10T04:29:37;7.30;99.90
27795;DHT22;15176;50.844;4.412;2023-01-10T04:32:02;7.30;99.90
27795;DHT22;15176;50.844;4.412;2023-01-10T04:34:28;7.30;99.90
27795;DHT22;15176;50.844;4.412;2023-01-10T04:36:54;7.30;99.90
27795;DHT22;15176;50.844;4.412;2023-01-10T04:39:19;7.40;99.90
27795;DHT22;15176;50.844;4.412;2023-01-10T04:41:45;7.40;99.90
27795;DHT22;15176;50.844;4.412;2023-01-10T04:44:11;7.30;99.90
27795;DHT22;15176;50.844;4.412;2023-01-10T04:46:37;7.30;99.90
27795;DHT22;15176;50.844;4.412;2023-01-10T04:49:02;7.10;99.90
27795;DHT22;15176;50.844;4.412;2023-01-10T04:51:28;7.10;99.90
27795;DHT22;15176;50.844;4.412;2023-01-10T04:53:55;6.80;99.90
27795;DHT22;15176;50.844;4.412;2023-01-10T04:56:22;7.00;99.90
27795;DHT22;15176;50.844;4.412;2023-01-10T04:58:48;7.10;99.90
27795;DHT22;15176;50.844;4.412;2023-01-10T05:01:21;7.10;99.90
27795;DHT22;15176;50.844;4.412;2023-01-10T05:03:48;6.90;99.90
27795;DHT22;15176;50.844;4.412;2023-01-10T05:06:15;7.10;99.90
27795;DHT22;15176;50.844;4.412;2023-01-10T05:08:43;7.20;99.90
27795;DHT22;15176;50.844;4.412;2023-01-10T05:11:09;7.40;99.90
27795;DHT22;15176;50.844;4.412;2023-01-10T05:13:35;7.50;99.90
27795;DHT22;15176;50.844;4.412;2023-01-10T05:16:01;7.70;99.90
27795;DHT22;15176;50.844;4.412;2023-01-10T05:18:28;7.80;99.90
27795;DHT22;15176;50.844;4.412;2023-01-10T05:21:08;7.90;99.90
27795;DHT22;15176;50.844;4.412;2023-01-10T05:23:34;8.10;99.90
27795;DHT22;15176;50.844;4.412;2023-01-10T05:26:19;8.00;99.90
27795;DHT22;15176;50.844;4.412;2023-01-10T05:28:44;7.90;99.90
27795;DHT22;15176;50.844;4.412;2023-01-10T05:31:13;7.80;99.90
27795;DHT22;15176;50.844;4.412;2023-01-10T05:33:42;7.70;99.90
27795;DHT22;15176;50.844;4.412;2023-01-10T05:36:08;7.50;99.90
27795;DHT22;15176;50.844;4.412;2023-01-10T05:38:33;7.30;99.90
27795;DHT22;15176;50.844;4.412;2023-01-10T05:40:59;7.10;99.90
27795;DHT22;15176;50.844;4.412;2023-01-10T05:43:26;7.20;99.90
27795;DHT22;15176;50.844;4.412;2023-01-10T05:45:52;7.50;99.90
27795;DHT22;15176;50.844;4.412;2023-01-10T05:48:18;7.70;99.90
27795;DHT22;15176;50.844;4.412;2023-01-10T05:50:44;7.50;99.90
27795;DHT22;15176;50.844;4.412;2023-01-10T05:53:10;7.60;99.90
27795;DHT22;15176;50.844;4.412;2023-01-10T05:55:35;7.90;99.90
27795;DHT22;15176;50.844;4.412;2023-01-10T05:58:01;8.20;99.90
27795;DHT22;15176;50.844;4.412;2023-01-10T06:00:27;8.20;99.90
27795;DHT22;15176;50.844;4.412;2023-01-10T06:02:54;8.50;99.90
27795;DHT22;15176;50.844;4.412;2023-01-10T06:05:20;8.30;99.90
27795;DHT22;15176;50.844;4.412;2023-01-10T06:07:46;8.40;99.90
27795;DHT22;15176;50.844;4.412;2023-01-10T06:10:11;8.10;99.90
27795;DHT22;15176;50.844;4.412;2023-01-10T06:12:40;8.50;99.90
27795;DHT22;15176;50.844;4.412;2023-01-10T06:15:07;8.60;99.90
27795;DHT22;15176;50.844;4.412;2023-01-10T06:17:32;8.40;99.90
27795;DHT22;15176;50.844;4.412;2023-01-10T06:19:58;8.50;99.90
27795;DHT22;15176;50.844;4.412;2023-01-10T06:22:24;8.50;99.90
27795;DHT22;15176;50.844;4.412;2023-01-10T06:24:50;8.60;99.90
27795;DHT22;15176;50.844;4.412;2023-01-10T06:27:16;8.60;99.90
27795;DHT22;15176;50.844;4.412;2023-01-10T06:29:42;8.90;99.90
27795;DHT22;15176;50.844;4.412;2023-01-10T06:32:08;8.40;99.90
27795;DHT22;15176;50.844;4.412;2023-01-10T06:34:33;8.80;99.90
27795;DHT22;15176;50.844;4.412;2023-01-10T06:36:59;8.70;99.90
27795;DHT22;15176;50.844;4.412;2023-01-10T06:39:25;8.90;99.90
27795;DHT22;15176;50.844;4.412;2023-01-10T06:41:50;9.00;99.90
27795;DHT22;15176;50.844;4.412;2023-01-10T06:44:19;9.30;99.90
27795;DHT22;15176;50.844;4.412;2023-01-10T06:46:45;9.00;99.90
27795;DHT22;15176;50.844;4.412;2023-01-10T06:49:11;8.40;99.90
27795;DHT22;15176;50.844;4.412;2023-01-10T06:51:36;8.20;99.90
27795;DHT22;15176;50.844;4.412;2023-01-10T06:54:02;8.70;99.90
27795;DHT22;15176;50.844;4.412;2023-01-10T06:56:28;8.80;99.90
27795;DHT22;15176;50.844;4.412;2023-01-10T06:58:53;8.60;99.90
27795;DHT22;15176;50.844;4.412;2023-01-10T07:01:20;8.80;99.90
27795;DHT22;15176;50.844;4.412;2023-01-10T07:03:46;8.40;99.90
27795;DHT22;15176;50.844;4.412;2023-01-10T07:06:12;8.10;99.90
27795;DHT22;15176;50.844;4.412;2023-01-10T07:08:40;8.20;99.90
27795;DHT22;15176;50.844;4.412;2023-01-10T07:11:07;8.20;99.90
27795;DHT22;15176;50.844;4.412;2023-01-10T07:13:33;8.10;99.90
27795;DHT22;15176;50.844;4.412;2023-01-10T07:16:07;8.40;99.90
27795;DHT22;15176;50.844;4.412;2023-01-10T07:18:35;8.40;99.90
27795;DHT22;15176;50.844;4.412;2023-01-10T07:21:01;8.30;99.90
27795;DHT22;15176;50.844;4.412;2023-01-10T07:23:29;8.50;99.90
27795;DHT22;15176;50.844;4.412;2023-01-10T07:26:01;8.00;99.90
27795;DHT22;15176;50.844;4.412;2023-01-10T07:28:28;8.50;99.90
27795;DHT22;15176;50.844;4.412;2023-01-10T07:30:57;8.80;99.90
27795;DHT22;15176;50.844;4.412;2023-01-10T07:33:23;9.20;99.90
27795;DHT22;15176;50.844;4.412;2023-01-10T07:35:51;8.90;99.90
27795;DHT22;15176;50.844;4.412;2023-01-10T07:38:19;9.30;99.90
27795;DHT22;15176;50.844;4.412;2023-01-10T07:40:48;9.10;99.90
27795;DHT22;15176;50.844;4.412;2023-01-10T07:43:13;8.80;99.90
27795;DHT22;15176;50.844;4.412;2023-01-10T07:45:39;8.50;99.90
27795;DHT22;15176;50.844;4.412;2023-01-10T07:48:05;9.00;99.90
27795;DHT22;15176;50.844;4.412;2023-01-10T07:50:35;9.00;99.90
27795;DHT22;15176;50.844;4.412;2023-01-10T07:53:02;8.80;99.90
27795;DHT22;15176;50.844;4.412;2023-01-10T07:55:29;8.40;99.90
27795;DHT22;15176;50.844;4.412;2023-01-10T07:57:56;8.90;99.90
27795;DHT22;15176;50.844;4.412;2023-01-10T08:00:21;9.00;99.90
27795;DHT22;15176;50.844;4.412;2023-01-10T08:02:51;9.30;99.90
27795;DHT22;15176;50.844;4.412;2023-01-10T08:05:17;9.40;99.90
27795;DHT22;15176;50.844;4.412;2023-01-10T08:07:43;9.80;99.90
27795;DHT22;15176;50.844;4.412;2023-01-10T08:10:09;9.50;99.90
27795;DHT22;15176;50.844;4.412;2023-01-10T08:12:35;9.60;99.90
27795;DHT22;15176;50.844;4.412;2023-01-10T08:15:01;10.00;99.90
27795;DHT22;15176;50.844;4.412;2023-01-10T08:17:27;10.00;99.90
27795;DHT22;15176;50.844;4.412;2023-01-10T08:19:53;10.50;99.90
27795;DHT22;15176;50.844;4.412;2023-01-10T08:22:18;10.60;99.90
27795;DHT22;15176;50.844;4.412;2023-01-10T08:24:44;10.10;99.90
27795;DHT22;15176;50.844;4.412;2023-01-10T08:27:10;10.50;99.90
27795;DHT22;15176;50.844;4.412;2023-01-10T08:29:36;9.50;99.90
27795;DHT22;15176;50.844;4.412;2023-01-10T08:32:02;9.60;99.90
27795;DHT22;15176;50.844;4.412;2023-01-10T08:34:28;10.10;99.90
27795;DHT22;15176;50.844;4.412;2023-01-10T08:36:54;9.80;99.90
27795;DHT22;15176;50.844;4.412;2023-01-10T08:39:21;10.10;99.90
27795;DHT22;15176;50.844;4.412;2023-01-10T08:41:47;9.80;99.90
27795;DHT22;15176;50.844;4.412;2023-01-10T08:44:15;9.70;99.90
27795;DHT22;15176;50.844;4.412;2023-01-10T08:46:41;9.60;99.90
27795;DHT22;15176;50.844;4.412;2023-01-10T08:49:07;10.10;99.90
27795;DHT22;15176;50.844;4.412;2023-01-10T08:51:33;10.80;99.90
27795;DHT22;15176;50.844;4.412;2023-01-10T08:53:59;10.90;99.90
27795;DHT22;15176;50.844;4.412;2023-01-10T08:56:25;10.70;99.90
27795;DHT22;15176;50.844;4.412;2023-01-10T08:58:50;10.10;99.90
27795;DHT22;15176;50.844;4.412;2023-01-10T09:01:17;9.40;99.90
27795;DHT22;15176;50.844;4.412;2023-01-10T09:03:43;9.80;99.90
27795;DHT22;15176;50.844;4.412;2023-01-10T09:06:09;10.30;99.90
27795;DHT22;15176;50.844;4.412;2023-01-10T09:08:35;10.90;99.90
27795;DHT22;15176;50.844;4.412;2023-01-10T09:11:02;10.40;99.90
27795;DHT22;15176;50.844;4.412;2023-01-10T09:13:29;10.20;99.90
27795;DHT22;15176;50.844;4.412;2023-01-10T09:15:55;10.10;99.90
27795;DHT22;15176;50.844;4.412;2023-01-10T09:18:21;10.60;99.90
27795;DHT22;15176;50.844;4.412;2023-01-10T09:20:49;10.10;99.90
27795;DHT22;15176;50.844;4.412;2023-01-10T09:23:17;10.10;99.90
27795;DHT22;15176;50.844;4.412;2023-01-10T09:25:50;10.80;99.90
27795;DHT22;15176;50.844;4.412;2023-01-10T09:28:23;10.90;99.90
27795;DHT22;15176;50.844;4.412;2023-01-10T09:30:49;10.80;99.90
27795;DHT22;15176;50.844;4.412;2023-01-10T09:33:15;11.30;99.90
27795;DHT22;15176;50.844;4.412;2023-01-10T09:35:42;11.60;99.90
27795;DHT22;15176;50.844;4.412;2023-01-10T09:38:12;11.30;99.90
27795;DHT22;15176;50.844;4.412;2023-01-10T09:52:24;9.80;99.90
27795;DHT22;15176;50.844;4.412;2023-01-10T09:54:55;9.80;99.90
27795;DHT22;15176;50.844;4.412;2023-01-10T09:57:23;9.60;99.90
27795;DHT22;15176;50.844;4.412;2023-01-10T09:59:51;9.60;99.90
27795;DHT22;15176;50.844;4.412;2023-01-10T10:05:01;10.30;99.90
27795;DHT22;15176;50.844;4.412;2023-01-10T10:07:28;9.40;99.90
27795;DHT22;15176;50.844;4.412;2023-01-10T10:09:54;9.80;99.90
27795;DHT22;15176;50.844;4.412;2023-01-10T10:15:23;11.20;99.90
27795;DHT22;15176;50.844;4.412;2023-01-10T10:18:17;11.30;99.90
27795;DHT22;15176;50.844;4.412;2023-01-10T10:26:36;11.60;99.90
27795;DHT22;15176;50.844;4.412;2023-01-10T10:35:24;10.40;99.90
27795;DHT22;15176;50.844;4.412;2023-01-10T10:37:54;10.20;99.90
27795;DHT22;15176;50.844;4.412;2023-01-10T10:40:24;10.10;99.90
27795;DHT22;15176;50.844;4.412;2023-01-10T10:42:56;10.50;99.90
27795;DHT22;15176;50.844;4.412;2023-01-10T10:53:32;10.20;99.90
27795;DHT22;15176;50.844;4.412;2023-01-10T10:55:59;10.30;99.90
27795;DHT22;15176;50.844;4.412;2023-01-10T10:58:26;10.40;99.90
27795;DHT22;15176;50.844;4.412;2023-01-10T11:00:55;10.30;99.90
27795;DHT22;15176;50.844;4.412;2023-01-10T11:03:42;10.40;99.90
27795;DHT22;15176;50.844;4.412;2023-01-10T11:06:09;10.40;99.90
27795;DHT22;15176;50.844;4.412;2023-01-10T11:08:37;10.40;99.90
27795;DHT22;15176;50.844;4.412;2023-01-10T11:11:42;9.90;99.90
27795;DHT22;15176;50.844;4.412;2023-01-10T11:14:11;10.00;99.90
27795;DHT22;15176;50.844;4.412;2023-01-10T11:16:43;9.70;99.90
27795;DHT22;15176;50.844;4.412;2023-01-10T11:22:00;10.00;99.90
27795;DHT22;15176;50.844;4.412;2023-01-10T11:24:33;9.60;99.90
27795;DHT22;15176;50.844;4.412;2023-01-10T11:27:17;9.60;99.90
27795;DHT22;15176;50.844;4.412;2023-01-10T11:30:08;9.80;99.90
27795;DHT22;15176;50.844;4.412;2023-01-10T11:32:50;10.40;99.90
27795;DHT22;15176;50.844;4.412;2023-01-10T11:35:29;11.20;99.90
27795;DHT22;15176;50.844;4.412;2023-01-10T11:38:15;10.70;99.90
27795;DHT22;15176;50.844;4.412;2023-01-10T11:41:04;10.70;99.90
27795;DHT22;15176;50.844;4.412;2023-01-10T11:43:38;10.90;99.90
27795;DHT22;15176;50.844;4.412;2023-01-10T11:46:14;10.80;99.90
27795;DHT22;15176;50.844;4.412;2023-01-10T11:48:49;10.70;99.90
27795;DHT22;15176;50.844;4.412;2023-01-10T11:51:26;10.40;99.90
27795;DHT22;15176;50.844;4.412;2023-01-10T11:54:08;10.20;99.90
27795;DHT22;15176;50.844;4.412;2023-01-10T11:56:37;10.10;99.90
27795;DHT22;15176;50.844;4.412;2023-01-10T11:59:17;10.40;99.90
27795;DHT22;15176;50.844;4.412;2023-01-10T12:02:10;10.40;99.90
27795;DHT22;15176;50.844;4.412;2023-01-10T12:04:43;10.50;99.90
27795;DHT22;15176;50.844;4.412;2023-01-10T12:07:13;10.40;99.90
27795;DHT22;15176;50.844;4.412;2023-01-10T12:12:27;10.40;99.90
27795;DHT22;15176;50.844;4.412;2023-01-10T12:14:55;10.30;99.90
27795;DHT22;15176;50.844;4.412;2023-01-10T12:17:31;11.00;99.90
27795;DHT22;15176;50.844;4.412;2023-01-10T12:20:00;11.70;99.90
27795;DHT22;15176;50.844;4.412;2023-01-10T12:22:32;12.00;99.90
27795;DHT22;15176;50.844;4.412;2023-01-10T12:25:05;11.80;99.90
27795;DHT22;15176;50.844;4.412;2023-01-10T12:27:33;12.00;99.90
27795;DHT22;15176;50.844;4.412;2023-01-10T12:30:12;11.80;99.90
27795;DHT22;15176;50.844;4.412;2023-01-10T12:32:48;11.20;99.90
27795;DHT22;15176;50.844;4.412;2023-01-10T12:35:42;10.80;99.90
27795;DHT22;15176;50.844;4.412;2023-01-10T12:41:08;10.90;99.90
27795;DHT22;15176;50.844;4.412;2023-01-10T12:43:39;10.80;99.90
27795;DHT22;15176;50.844;4.412;2023-01-10T12:46:39;10.30;99.90
27795;DHT22;15176;50.844;4.412;2023-01-10T12:49:16;10.20;99.90
27795;DHT22;15176;50.844;4.412;2023-01-10T12:51:45;10.40;99.90
27795;DHT22;15176;50.844;4.412;2023-01-10T12:54:15;10.60;99.90
27795;DHT22;15176;50.844;4.412;2023-01-10T12:56:47;10.70;99.90
27795;DHT22;15176;50.844;4.412;2023-01-10T12:59:24;10.70;99.90
27795;DHT22;15176;50.844;4.412;2023-01-10T13:01:55;10.20;99.90
27795;DHT22;15176;50.844;4.412;2023-01-10T13:04:23;10.20;99.90
27795;DHT22;15176;50.844;4.412;2023-01-10T13:06:51;10.50;99.90
27795;DHT22;15176;50.844;4.412;2023-01-10T13:09:24;10.50;99.90
27795;DHT22;15176;50.844;4.412;2023-01-10T13:14:24;11.20;99.90
27795;DHT22;15176;50.844;4.412;2023-01-10T13:17:01;10.90;99.90
27795;DHT22;15176;50.844;4.412;2023-01-10T13:19:29;11.10;99.90
27795;DHT22;15176;50.844;4.412;2023-01-10T13:22:18;10.40;99.90
27795;DHT22;15176;50.844;4.412;2023-01-10T13:25:03;10.10;99.90
27795;DHT22;15176;50.844;4.412;2023-01-10T13:27:31;10.00;99.90
27795;DHT22;15176;50.844;4.412;2023-01-10T13:29:58;10.10;99.90
27795;DHT22;15176;50.844;4.412;2023-01-10T13:32:28;9.90;99.90
27795;DHT22;15176;50.844;4.412;2023-01-10T13:35:15;10.00;99.90
27795;DHT22;15176;50.844;4.412;2023-01-10T13:37:44;10.00;99.90
27795;DHT22;15176;50.844;4.412;2023-01-10T13:40:26;10.30;99.90
27795;DHT22;15176;50.844;4.412;2023-01-10T13:43:24;9.90;99.90
27795;DHT22;15176;50.844;4.412;2023-01-10T13:54:11;9.60;99.90
27795;DHT22;15176;50.844;4.412;2023-01-10T13:56:49;9.50;99.90
27795;DHT22;15176;50.844;4.412;2023-01-10T14:02:20;9.50;99.90
27795;DHT22;15176;50.844;4.412;2023-01-10T14:05:05;9.90;99.90
27795;DHT22;15176;50.844;4.412;2023-01-10T14:07:42;9.60;99.90
27795;DHT22;15176;50.844;4.412;2023-01-10T14:10:18;9.50;99.90
27795;DHT22;15176;50.844;4.412;2023-01-10T14:13:06;9.20;99.90
27795;DHT22;15176;50.844;4.412;2023-01-10T14:15:43;9.10;99.90
27795;DHT22;15176;50.844;4.412;2023-01-10T14:18:33;9.00;99.90
27795;DHT22;15176;50.844;4.412;2023-01-10T14:21:08;9.20;99.90
27795;DHT22;15176;50.844;4.412;2023-01-10T14:23:41;9.30;99.90
27795;DHT22;15176;50.844;4.412;2023-01-10T14:26:28;9.00;99.90
27795;DHT22;15176;50.844;4.412;2023-01-10T14:28:55;9.00;99.90
27795;DHT22;15176;50.844;4.412;2023-01-10T14:31:22;8.90;99.90
27795;DHT22;15176;50.844;4.412;2023-01-10T14:33:50;8.80;99.90
27795;DHT22;15176;50.844;4.412;2023-01-10T14:36:34;9.30;99.90
27795;DHT22;15176;50.844;4.412;2023-01-10T14:39:04;8.80;99.90
27795;DHT22;15176;50.844;4.412;2023-01-10T14:41:37;8.70;99.90
27795;DHT22;15176;50.844;4.412;2023-01-10T14:44:10;8.70;99.90
27795;DHT22;15176;50.844;4.412;2023-01-10T14:46:52;8.80;99.90
27795;DHT22;15176;50.844;4.412;2023-01-10T14:49:28;9.10;99.90
27795;DHT22;15176;50.844;4.412;2023-01-10T14:52:09;9.20;99.90
27795;DHT22;15176;50.844;4.412;2023-01-10T14:54:35;9.30;99.90
27795;DHT22;15176;50.844;4.412;2023-01-10T14:57:01;9.40;99.90
27795;DHT22;15176;50.844;4.412;2023-01-10T14:59:30;9.00;99.90
27795;DHT22;15176;50.844;4.412;2023-01-10T15:02:02;9.40;99.90
27795;DHT22;15176;50.844;4.412;2023-01-10T15:04:30;9.50;99.90
27795;DHT22;15176;50.844;4.412;2023-01-10T15:07:10;9.80;99.90
27795;DHT22;15176;50.844;4.412;2023-01-10T15:09:37;9.90;99.90
27795;DHT22;15176;50.844;4.412;2023-01-10T15:12:08;9.90;99.90
27795;DHT22;15176;50.844;4.412;2023-01-10T15:14:37;9.40;99.90
27795;DHT22;15176;50.844;4.412;2023-01-10T15:17:03;9.40;99.90
27795;DHT22;15176;50.844;4.412;2023-01-10T15:19:33;9.50;99.90
27795;DHT22;15176;50.844;4.412;2023-01-10T15:22:02;9.80;99.90
27795;DHT22;15176;50.844;4.412;2023-01-10T15:24:36;10.30;99.90
27795;DHT22;15176;50.844;4.412;2023-01-10T15:27:04;9.70;99.90
27795;DHT22;15176;50.844;4.412;2023-01-10T15:29:31;9.50;99.90
27795;DHT22;15176;50.844;4.412;2023-01-10T15:32:06;9.60;99.90
27795;DHT22;15176;50.844;4.412;2023-01-10T15:34:32;9.90;99.90
27795;DHT22;15176;50.844;4.412;2023-01-10T15:36:59;9.50;99.90
27795;DHT22;15176;50.844;4.412;2023-01-10T15:39:37;9.30;99.90
27795;DHT22;15176;50.844;4.412;2023-01-10T15:42:08;9.40;99.90
27795;DHT22;15176;50.844;4.412;2023-01-10T15:44:40;9.70;99.90
27795;DHT22;15176;50.844;4.412;2023-01-10T15:50:35;9.70;99.90
27795;DHT22;15176;50.844;4.412;2023-01-10T15:53:10;9.90;99.90
27795;DHT22;15176;50.844;4.412;2023-01-10T15:55:51;10.40;99.90
27795;DHT22;15176;50.844;4.412;2023-01-10T16:00:49;10.40;99.90
27795;DHT22;15176;50.844;4.412;2023-01-10T16:03:33;10.70;99.90
27795;DHT22;15176;50.844;4.412;2023-01-10T16:06:00;10.10;99.90
27795;DHT22;15176;50.844;4.412;2023-01-10T16:08:31;10.30;99.90
27795;DHT22;15176;50.844;4.412;2023-01-10T16:11:01;10.20;99.90
27795;DHT22;15176;50.844;4.412;2023-01-10T16:13:27;10.00;99.90
27795;DHT22;15176;50.844;4.412;2023-01-10T16:15:56;9.90;99.90
27795;DHT22;15176;50.844;4.412;2023-01-10T16:18:23;10.10;99.90
27795;DHT22;15176;50.844;4.412;2023-01-10T16:20:51;10.20;99.90
27795;DHT22;15176;50.844;4.412;2023-01-10T16:23:22;10.00;99.90
27795;DHT22;15176;50.844;4.412;2023-01-10T16:25:52;9.90;99.90
27795;DHT22;15176;50.844;4.412;2023-01-10T16:28:20;9.90;99.90
27795;DHT22;15176;50.844;4.412;2023-01-10T16:30:47;9.70;99.90
27795;DHT22;15176;50.844;4.412;2023-01-10T16:33:15;9.60;99.90
27795;DHT22;15176;50.844;4.412;2023-01-10T16:35:43;9.90;99.90
27795;DHT22;15176;50.844;4.412;2023-01-10T16:38:09;10.10;99.90
27795;DHT22;15176;50.844;4.412;2023-01-10T16:40:59;10.30;99.90
27795;DHT22;15176;50.844;4.412;2023-01-10T16:43:24;10.10;99.90
27795;DHT22;15176;50.844;4.412;2023-01-10T16:45:56;9.50;99.90
27795;DHT22;15176;50.844;4.412;2023-01-10T16:48:25;9.60;99.90
27795;DHT22;15176;50.844;4.412;2023-01-10T16:50:51;9.80;99.90
27795;DHT22;15176;50.844;4.412;2023-01-10T16:53:18;9.40;99.90
27795;DHT22;15176;50.844;4.412;2023-01-10T16:58:11;9.40;99.90
27795;DHT22;15176;50.844;4.412;2023-01-10T17:00:39;9.90;99.90
27795;DHT22;15176;50.844;4.412;2023-01-10T17:03:08;9.90;99.90
27795;DHT22;15176;50.844;4.412;2023-01-10T17:05:37;10.20;99.90
27795;DHT22;15176;50.844;4.412;2023-01-10T17:08:04;10.40;99.90
27795;DHT22;15176;50.844;4.412;2023-01-10T17:10:32;10.30;99.90
27795;DHT22;15176;50.844;4.412;2023-01-10T17:12:59;10.40;99.90
27795;DHT22;15176;50.844;4.412;2023-01-10T17:15:26;10.20;99.90
27795;DHT22;15176;50.844;4.412;2023-01-10T17:17:52;10.20;99.90
27795;DHT22;15176;50.844;4.412;2023-01-10T17:20:18;10.20;99.90
27795;DHT22;15176;50.844;4.412;2023-01-10T17:22:44;10.40;99.90
27795;DHT22;15176;50.844;4.412;2023-01-10T17:25:14;10.50;99.90
27795;DHT22;15176;50.844;4.412;2023-01-10T17:27:42;10.70;99.90
27795;DHT22;15176;50.844;4.412;2023-01-10T17:30:09;10.40;99.90
27795;DHT22;15176;50.844;4.412;2023-01-10T17:32:35;10.30;99.90
27795;DHT22;15176;50.844;4.412;2023-01-10T17:35:01;10.10;99.90
27795;DHT22;15176;50.844;4.412;2023-01-10T17:37:26;9.90;99.90
27795;DHT22;15176;50.844;4.412;2023-01-10T17:39:52;10.30;99.90
27795;DHT22;15176;50.844;4.412;2023-01-10T17:42:18;10.00;99.90